Flight Track Log - Related Links

Times and Time Zones

All times are in EDT time to prevent confusion due to time zone crossing. See the ASQ5432 flight status page for this flight to view local times or setup timezone preferences in your user account.

Time Position Orientation Groundspeed Altitude Reporting Facility
EDT Latitude Longitude Course Direction KTS MPH feet Rate Location/Type
Tue 01:09:06 PM 35.8667 -78.8114 263° West 179 206 1,400  Level Washington Center
Tue 01:10:24 PM 35.8606 -78.8750 263° West 203 234 5,000 2,284 Climbing Washington Center
Tue 01:12:02 PM 35.9436 -78.8169 30° Northeast 258 297 8,100 2,140 Climbing Washington Center
Tue 01:13:01 PM 36.0039 -78.7500 42° Northeast 269 310 10,600 2,067 Climbing Washington Center
Tue 01:14:01 PM 36.0725 -78.6783 40° Northeast 294 338 12,200 1,736 Climbing Washington Center
Tue 01:15:02 PM 36.1500 -78.5861 44° Northeast 330 380 14,100 1,765 Climbing Washington Center
Tue 01:16:00 PM 36.2269 -78.5042 41° Northeast 350 403 15,700 1,627 Climbing Washington Center
Tue 01:17:00 PM 36.3042 -78.4167 42° Northeast 364 419 17,300 1,438 Climbing Washington Center
Tue 01:18:01 PM 36.3811 -78.3422 38° Northeast 374 430 18,600 1,328 Climbing Washington Center
Tue 01:19:02 PM 36.4647 -78.2494 42° Northeast 385 443 20,000 1,462 Climbing Washington Center
Tue 01:20:00 PM 36.5542 -78.1569 40° Northeast 402 463 21,500 1,462 Climbing Washington Center
Tue 01:21:01 PM 36.6522 -78.0617 38° Northeast 407 468 22,900 1,033 Climbing Washington Center
Tue 01:22:02 PM 36.7522 -77.9717 36° Northeast 419 482 23,600 756 Climbing Washington Center
Tue 01:23:00 PM 36.8417 -77.8681 43° Northeast 430 495 24,400 712 Climbing Washington Center
Tue 01:24:00 PM 36.9233 -77.7431 51° Northeast 443 510 25,000 694 Climbing Washington Center
Tue 01:25:01 PM 37.0069 -77.6153 51° Northeast 456 525 25,800 885 Climbing Washington Center
Tue 01:26:02 PM 37.0861 -77.4900 52° Northeast 462 532 26,800 1,160 Climbing Washington Center
Tue 01:27:00 PM 37.1672 -77.3667 50° Northeast 462 532 28,100 1,412 Climbing Washington Center
Tue 01:28:01 PM 37.2461 -77.2433 51° Northeast 462 532 29,600 1,180 Climbing Washington Center
Tue 01:29:02 PM 37.3186 -77.1353 50° Northeast 455 524 30,500 942 Climbing Washington Center
Tue 01:30:02 PM 37.4219 -77.0511 33° Northeast 437 503 31,500 1,068 Climbing Washington Center
Tue 01:31:00 PM 37.5439 -76.9592 31° Northeast 447 514 32,600 756 Climbing Washington Center
Tue 01:32:01 PM 37.6511 -76.8769 31° Northeast 452 520 33,000 200 Climbing Washington Center
Tue 01:33:00 PM 37.7625 -76.7950 30° Northeast 452 520 33,000  Level Washington Center
Tue 01:34:00 PM 37.8803 -76.7047 31° Northeast 467 537 33,000  Level Washington Center
Tue 01:35:01 PM 37.9958 -76.6194 30° Northeast 467 537 33,000 -98 Level Washington Center
Tue 01:36:02 PM 38.1111 -76.5311 31° Northeast 472 543 32,800 -508 Descending Washington Center
Tue 01:36:59 PM 38.2286 -76.4428 31° Northeast 477 549 32,000 -712 Descending Washington Center
Tue 01:38:00 PM 38.3292 -76.3619 32° Northeast 482 555 31,400 -689 Descending Washington Center
Tue 01:39:01 PM 38.4403 -76.2597 36° Northeast 476 548 30,600 -836 Descending Washington Center
Tue 01:40:02 PM 38.5597 -76.1467 36° Northeast 476 548 29,700 -908 Descending Washington Center
Tue 01:41:00 PM 38.6686 -76.0464 36° Northeast 481 554 28,800 -807 Descending Washington Center
Tue 01:42:01 PM 38.7794 -75.9511 34° Northeast 481 554 28,100 -689 Descending Washington Center
Tue 01:43:02 PM 38.8839 -75.8475 38° Northeast 476 548 27,400 -595 Descending Washington Center
Tue 01:44:02 PM 38.9883 -75.7492 36° Northeast 476 548 26,900 -203 Descending Washington Center
Tue 01:45:00 PM 39.0925 -75.6503 36° Northeast 470 541 27,000 50 Climbing Washington Center
Tue 01:46:01 PM 39.1967 -75.5486 37° Northeast 470 541 27,000 -49 Level Washington Center
Tue 01:47:02 PM 39.3031 -75.4522 35° Northeast 464 534 26,900 -50 Descending Washington Center
Tue 01:48:02 PM 39.4111 -75.3578 34° Northeast 469 540 26,900 -900 Level Washington Center
Tue 01:49:02 PM 39.5192 -75.2606 35° Northeast 474 545 25,100 -2,339 Descending Washington Center
Tue 01:50:00 PM 39.6272 -75.1606 35° Northeast 474 545 22,300 -2,773 Descending Washington Center
Tue 01:51:01 PM 39.7208 -75.0736 36° Northeast 467 537 19,600 -2,607 Descending Washington Center
Tue 01:52:02 PM 39.8328 -74.9808 32° Northeast 450 518 17,000 -2,218 Descending Washington Center
Tue 01:53:00 PM 39.9117 -74.9097 35° Northeast 428 493 15,200 -2,129 Descending Washington Center
Tue 01:54:06 PM 40.0167 -74.7667 46° Northeast 415 478 12,600 -2,381 Descending New York TRACON
Tue 01:55:06 PM 40.0833 -74.6667 49° Northeast 404 465 10,200 -1,650 Descending New York TRACON
Tue 01:56:06 PM 40.1500 -74.5667 49° Northeast 309 356 9,300 -1,059 Descending New York TRACON
Tue 01:57:05 PM 40.2000 -74.4833 52° Northeast 303 349 8,100 -605 Descending New York TRACON
Tue 01:58:05 PM 40.2667 -74.4167 37° Northeast 304 350 8,100  Level New York TRACON
Tue 01:59:00 PM 40.3167 -74.3500 45° Northeast 311 358 8,100  Level New York TRACON
Tue 02:00:00 PM 40.3833 -74.2667 44° Northeast 309 356 8,100  Level New York TRACON
Tue 02:01:00 PM 40.4500 -74.1833 44° Northeast 286 329 8,100 -800 Level New York TRACON
Tue 02:02:00 PM 40.5000 -74.1333 37° Northeast 254 292 6,500 -1,650 Descending New York TRACON
Tue 02:03:00 PM 40.5667 -74.1000 21° North 249 287 4,800 -1,200 Descending New York TRACON
Tue 02:04:00 PM 40.6333 -74.0667 21° North 228 262 4,100 -350 Descending New York TRACON
Tue 02:05:00 PM 40.6833 -74.0333 27° Northeast 217 250 4,100  Level New York TRACON
Tue 02:06:00 PM 40.7333 -74.0167 14° North 214 246 4,100  Level New York TRACON
Tue 02:07:00 PM 40.8000 -73.9833 21° North 227 261 4,100  Level New York TRACON
Tue 02:08:00 PM 40.8500 -73.9500 27° Northeast 215 247 4,100  Level New York TRACON
Tue 02:09:00 PM 40.9000 -73.9167 27° Northeast 212 244 4,100  Level New York TRACON
Tue 02:10:00 PM 40.9500 -73.8833 27° Northeast 221 254 4,100 -95 Level New York TRACON
Tue 02:11:06 PM 40.9833 -73.8167 56° Northeast 232 267 3,900 -476 Descending New York TRACON
Tue 02:12:06 PM 40.9500 -73.7667 131° Southeast 193 222 3,100 -550 Descending New York TRACON
Tue 02:13:06 PM 40.9000 -73.7833 194° South 177 204 2,800 -600 Descending New York TRACON
Tue 02:14:06 PM 40.8667 -73.8000 201° Southwest 138 159 1,900 -800 Descending New York TRACON
Tue 02:15:06 PM 40.8333 -73.8333 217° Southwest 134 154 1,200 -650 Descending New York TRACON
Tue 02:16:06 PM 40.8000 -73.8500 201° Southwest 134 154 600 -600 Descending New York TRACON

Login

Don't have an account? Register now (free) for customized features, flight alerts, and more!